sensor_id;sensor_type;location;lat;lon;timestamp;temperature;humidity
4399;DHT22;2213;49.720;7.296;2023-06-14T00:01:17;16.80;89.00
4399;DHT22;2213;49.720;7.296;2023-06-14T00:03:49;16.70;89.00
4399;DHT22;2213;49.720;7.296;2023-06-14T00:06:19;16.70;89.00
4399;DHT22;2213;49.720;7.296;2023-06-14T00:08:48;16.70;89.50
4399;DHT22;2213;49.720;7.296;2023-06-14T00:11:18;16.60;90.00
4399;DHT22;2213;49.720;7.296;2023-06-14T00:13:47;16.60;89.40
4399;DHT22;2213;49.720;7.296;2023-06-14T00:16:16;16.50;89.30
4399;DHT22;2213;49.720;7.296;2023-06-14T00:18:46;16.50;89.80
4399;DHT22;2213;49.720;7.296;2023-06-14T00:21:16;16.50;89.60
4399;DHT22;2213;49.720;7.296;2023-06-14T00:23:48;16.40;89.50
4399;DHT22;2213;49.720;7.296;2023-06-14T00:26:17;16.40;89.70
4399;DHT22;2213;49.720;7.296;2023-06-14T00:28:46;16.30;90.00
4399;DHT22;2213;49.720;7.296;2023-06-14T00:31:15;16.30;90.00
4399;DHT22;2213;49.720;7.296;2023-06-14T00:33:44;16.20;90.30
4399;DHT22;2213;49.720;7.296;2023-06-14T00:36:12;16.20;90.20
4399;DHT22;2213;49.720;7.296;2023-06-14T00:38:41;16.20;90.10
4399;DHT22;2213;49.720;7.296;2023-06-14T00:41:12;16.10;90.20
4399;DHT22;2213;49.720;7.296;2023-06-14T00:43:40;16.10;90.20
4399;DHT22;2213;49.720;7.296;2023-06-14T00:46:10;16.00;90.20
4399;DHT22;2213;49.720;7.296;2023-06-14T00:48:39;16.00;90.40
4399;DHT22;2213;49.720;7.296;2023-06-14T00:51:09;16.00;90.50
4399;DHT22;2213;49.720;7.296;2023-06-14T00:53:38;15.90;90.40
4399;DHT22;2213;49.720;7.296;2023-06-14T00:56:08;15.90;90.50
4399;DHT22;2213;49.720;7.296;2023-06-14T00:58:42;15.80;90.50
4399;DHT22;2213;49.720;7.296;2023-06-14T01:01:11;15.80;90.60
4399;DHT22;2213;49.720;7.296;2023-06-14T01:03:41;15.80;90.70
4399;DHT22;2213;49.720;7.296;2023-06-14T01:06:16;15.70;90.70
4399;DHT22;2213;49.720;7.296;2023-06-14T01:09:03;15.70;90.80
4399;DHT22;2213;49.720;7.296;2023-06-14T01:11:45;15.60;91.00
4399;DHT22;2213;49.720;7.296;2023-06-14T01:14:21;15.60;90.90
4399;DHT22;2213;49.720;7.296;2023-06-14T01:16:50;15.50;91.00
4399;DHT22;2213;49.720;7.296;2023-06-14T01:19:20;15.50;91.30
4399;DHT22;2213;49.720;7.296;2023-06-14T01:21:53;15.50;91.00
4399;DHT22;2213;49.720;7.296;2023-06-14T01:24:24;15.50;91.00
4399;DHT22;2213;49.720;7.296;2023-06-14T01:26:59;15.40;91.40
4399;DHT22;2213;49.720;7.296;2023-06-14T01:29:31;15.40;91.30
4399;DHT22;2213;49.720;7.296;2023-06-14T01:32:00;15.40;91.20
4399;DHT22;2213;49.720;7.296;2023-06-14T01:34:31;15.30;91.30
4399;DHT22;2213;49.720;7.296;2023-06-14T01:37:00;15.30;91.40
4399;DHT22;2213;49.720;7.296;2023-06-14T01:39:32;15.30;91.30
4399;DHT22;2213;49.720;7.296;2023-06-14T01:42:03;15.20;91.40
4399;DHT22;2213;49.720;7.296;2023-06-14T01:44:34;15.20;91.40
4399;DHT22;2213;49.720;7.296;2023-06-14T01:47:03;15.20;91.60
4399;DHT22;2213;49.720;7.296;2023-06-14T01:49:34;15.20;91.70
4399;DHT22;2213;49.720;7.296;2023-06-14T01:52:03;15.20;91.50
4399;DHT22;2213;49.720;7.296;2023-06-14T01:54:35;15.10;91.40
4399;DHT22;2213;49.720;7.296;2023-06-14T01:57:09;15.10;91.50
4399;DHT22;2213;49.720;7.296;2023-06-14T01:59:38;15.10;91.90
4399;DHT22;2213;49.720;7.296;2023-06-14T02:02:07;15.00;91.60
4399;DHT22;2213;49.720;7.296;2023-06-14T02:04:35;15.00;91.60
4399;DHT22;2213;49.720;7.296;2023-06-14T02:07:04;15.00;91.70
4399;DHT22;2213;49.720;7.296;2023-06-14T02:09:35;14.90;91.80
4399;DHT22;2213;49.720;7.296;2023-06-14T02:12:05;14.90;91.90
4399;DHT22;2213;49.720;7.296;2023-06-14T02:14:34;14.80;91.80
4399;DHT22;2213;49.720;7.296;2023-06-14T02:17:03;14.80;91.90
4399;DHT22;2213;49.720;7.296;2023-06-14T02:19:33;14.80;92.00
4399;DHT22;2213;49.720;7.296;2023-06-14T02:22:02;14.80;92.10
4399;DHT22;2213;49.720;7.296;2023-06-14T02:24:31;14.70;92.20
4399;DHT22;2213;49.720;7.296;2023-06-14T02:27:01;14.70;92.10
4399;DHT22;2213;49.720;7.296;2023-06-14T02:29:31;14.70;92.40
4399;DHT22;2213;49.720;7.296;2023-06-14T02:31:59;14.60;92.10
4399;DHT22;2213;49.720;7.296;2023-06-14T02:34:28;14.60;92.50
4399;DHT22;2213;49.720;7.296;2023-06-14T02:36:57;14.60;92.30
4399;DHT22;2213;49.720;7.296;2023-06-14T02:39:26;14.50;92.30
4399;DHT22;2213;49.720;7.296;2023-06-14T02:41:55;14.50;92.40
4399;DHT22;2213;49.720;7.296;2023-06-14T02:44:26;14.50;92.50
4399;DHT22;2213;49.720;7.296;2023-06-14T02:46:55;14.40;92.60
4399;DHT22;2213;49.720;7.296;2023-06-14T02:49:25;14.40;92.60
4399;DHT22;2213;49.720;7.296;2023-06-14T02:51:54;14.40;92.80
4399;DHT22;2213;49.720;7.296;2023-06-14T02:54:23;14.30;92.70
4399;DHT22;2213;49.720;7.296;2023-06-14T02:56:52;14.30;92.70
4399;DHT22;2213;49.720;7.296;2023-06-14T02:59:21;14.30;92.90
4399;DHT22;2213;49.720;7.296;2023-06-14T03:01:53;14.30;93.10
4399;DHT22;2213;49.720;7.296;2023-06-14T03:04:23;14.30;92.80
4399;DHT22;2213;49.720;7.296;2023-06-14T03:06:52;14.20;92.80
4399;DHT22;2213;49.720;7.296;2023-06-14T03:09:21;14.20;92.80
4399;DHT22;2213;49.720;7.296;2023-06-14T03:11:50;14.20;93.00
4399;DHT22;2213;49.720;7.296;2023-06-14T03:14:19;14.20;93.20
4399;DHT22;2213;49.720;7.296;2023-06-14T03:16:48;14.10;93.00
4399;DHT22;2213;49.720;7.296;2023-06-14T03:19:26;14.10;93.00
4399;DHT22;2213;49.720;7.296;2023-06-14T03:21:55;14.10;93.10
4399;DHT22;2213;49.720;7.296;2023-06-14T03:24:25;14.10;93.10
4399;DHT22;2213;49.720;7.296;2023-06-14T03:26:56;14.00;93.30
4399;DHT22;2213;49.720;7.296;2023-06-14T03:29:25;13.90;93.40
4399;DHT22;2213;49.720;7.296;2023-06-14T03:31:58;13.90;93.30
4399;DHT22;2213;49.720;7.296;2023-06-14T03:34:30;13.90;93.50
4399;DHT22;2213;49.720;7.296;2023-06-14T03:36:59;13.90;93.50
4399;DHT22;2213;49.720;7.296;2023-06-14T03:39:28;13.90;93.50
4399;DHT22;2213;49.720;7.296;2023-06-14T03:41:56;13.80;93.50
4399;DHT22;2213;49.720;7.296;2023-06-14T03:44:26;13.80;93.50
4399;DHT22;2213;49.720;7.296;2023-06-14T03:46:55;13.80;93.60
4399;DHT22;2213;49.720;7.296;2023-06-14T03:49:25;13.70;93.70
4399;DHT22;2213;49.720;7.296;2023-06-14T03:51:55;13.70;93.70
4399;DHT22;2213;49.720;7.296;2023-06-14T03:54:24;13.70;93.80
4399;DHT22;2213;49.720;7.296;2023-06-14T03:57:15;13.70;93.90
4399;DHT22;2213;49.720;7.296;2023-06-14T03:59:43;13.70;93.90
4399;DHT22;2213;49.720;7.296;2023-06-14T04:02:12;13.70;94.00
4399;DHT22;2213;49.720;7.296;2023-06-14T04:04:42;13.70;93.90
4399;DHT22;2213;49.720;7.296;2023-06-14T04:07:14;13.70;94.00
4399;DHT22;2213;49.720;7.296;2023-06-14T04:09:46;13.70;94.10
4399;DHT22;2213;49.720;7.296;2023-06-14T04:12:15;13.70;94.20
4399;DHT22;2213;49.720;7.296;2023-06-14T04:14:44;13.70;94.10
4399;DHT22;2213;49.720;7.296;2023-06-14T04:17:13;13.70;94.20
4399;DHT22;2213;49.720;7.296;2023-06-14T04:19:42;13.70;94.20
4399;DHT22;2213;49.720;7.296;2023-06-14T04:22:12;13.70;94.20
4399;DHT22;2213;49.720;7.296;2023-06-14T04:24:41;13.70;94.20
4399;DHT22;2213;49.720;7.296;2023-06-14T04:27:16;13.70;94.20
4399;DHT22;2213;49.720;7.296;2023-06-14T04:29:49;13.80;94.30
4399;DHT22;2213;49.720;7.296;2023-06-14T04:32:21;13.80;94.30
4399;DHT22;2213;49.720;7.296;2023-06-14T04:34:53;13.70;94.30
4399;DHT22;2213;49.720;7.296;2023-06-14T04:37:24;13.80;94.40
4399;DHT22;2213;49.720;7.296;2023-06-14T04:39:55;13.80;94.40
4399;DHT22;2213;49.720;7.296;2023-06-14T04:42:24;13.80;94.40
4399;DHT22;2213;49.720;7.296;2023-06-14T04:44:58;13.80;94.50
4399;DHT22;2213;49.720;7.296;2023-06-14T04:47:28;13.90;94.60
4399;DHT22;2213;49.720;7.296;2023-06-14T04:49:57;13.90;94.60
4399;DHT22;2213;49.720;7.296;2023-06-14T04:52:29;13.90;94.60
4399;DHT22;2213;49.720;7.296;2023-06-14T04:54:59;13.90;94.70
4399;DHT22;2213;49.720;7.296;2023-06-14T04:57:30;13.90;94.60
4399;DHT22;2213;49.720;7.296;2023-06-14T04:59:59;14.00;94.60
4399;DHT22;2213;49.720;7.296;2023-06-14T05:02:31;14.00;94.60
4399;DHT22;2213;49.720;7.296;2023-06-14T05:05:00;14.10;94.70
4399;DHT22;2213;49.720;7.296;2023-06-14T05:07:31;14.00;95.00
4399;DHT22;2213;49.720;7.296;2023-06-14T05:10:01;14.10;95.00
4399;DHT22;2213;49.720;7.296;2023-06-14T05:12:31;14.10;94.80
4399;DHT22;2213;49.720;7.296;2023-06-14T05:15:01;14.20;94.90
4399;DHT22;2213;49.720;7.296;2023-06-14T05:17:30;14.30;94.80
4399;DHT22;2213;49.720;7.296;2023-06-14T05:20:00;14.30;95.00
4399;DHT22;2213;49.720;7.296;2023-06-14T05:22:30;14.30;95.10
4399;DHT22;2213;49.720;7.296;2023-06-14T05:24:59;14.30;95.00
4399;DHT22;2213;49.720;7.296;2023-06-14T05:27:28;14.40;94.80
4399;DHT22;2213;49.720;7.296;2023-06-14T05:29:57;14.50;94.60
4399;DHT22;2213;49.720;7.296;2023-06-14T05:32:26;14.50;94.40
4399;DHT22;2213;49.720;7.296;2023-06-14T05:34:55;14.60;94.30
4399;DHT22;2213;49.720;7.296;2023-06-14T05:37:24;14.60;94.30
4399;DHT22;2213;49.720;7.296;2023-06-14T05:39:54;14.70;94.20
4399;DHT22;2213;49.720;7.296;2023-06-14T05:42:24;14.70;94.40
4399;DHT22;2213;49.720;7.296;2023-06-14T05:44:54;14.80;94.30
4399;DHT22;2213;49.720;7.296;2023-06-14T05:47:23;14.90;94.60
4399;DHT22;2213;49.720;7.296;2023-06-14T05:49:52;14.90;94.40
4399;DHT22;2213;49.720;7.296;2023-06-14T05:52:21;15.00;94.30
4399;DHT22;2213;49.720;7.296;2023-06-14T05:54:50;15.00;94.20
4399;DHT22;2213;49.720;7.296;2023-06-14T05:57:20;15.10;94.40
4399;DHT22;2213;49.720;7.296;2023-06-14T05:59:49;15.20;94.40
4399;DHT22;2213;49.720;7.296;2023-06-14T06:02:19;15.20;94.50
4399;DHT22;2213;49.720;7.296;2023-06-14T06:04:48;15.30;94.50
4399;DHT22;2213;49.720;7.296;2023-06-14T06:07:18;15.30;94.40
4399;DHT22;2213;49.720;7.296;2023-06-14T06:09:47;15.40;94.50
4399;DHT22;2213;49.720;7.296;2023-06-14T06:12:28;15.50;94.30
4399;DHT22;2213;49.720;7.296;2023-06-14T06:14:57;15.50;94.20
4399;DHT22;2213;49.720;7.296;2023-06-14T06:17:26;15.60;94.40
4399;DHT22;2213;49.720;7.296;2023-06-14T06:20:12;15.60;94.00
4399;DHT22;2213;49.720;7.296;2023-06-14T06:22:41;15.70;94.00
4399;DHT22;2213;49.720;7.296;2023-06-14T06:25:09;15.80;93.60
4399;DHT22;2213;49.720;7.296;2023-06-14T06:27:40;15.90;93.60
4399;DHT22;2213;49.720;7.296;2023-06-14T06:30:10;16.00;93.80
4399;DHT22;2213;49.720;7.296;2023-06-14T06:32:40;16.00;93.60
4399;DHT22;2213;49.720;7.296;2023-06-14T06:35:09;16.10;93.00
4399;DHT22;2213;49.720;7.296;2023-06-14T06:37:41;16.20;92.70
4399;DHT22;2213;49.720;7.296;2023-06-14T06:40:11;16.30;93.10
4399;DHT22;2213;49.720;7.296;2023-06-14T06:42:41;16.30;92.60
4399;DHT22;2213;49.720;7.296;2023-06-14T06:45:11;16.40;92.70
4399;DHT22;2213;49.720;7.296;2023-06-14T06:47:41;16.50;92.40
4399;DHT22;2213;49.720;7.296;2023-06-14T06:50:10;16.60;92.10
4399;DHT22;2213;49.720;7.296;2023-06-14T06:52:38;16.70;91.80
4399;DHT22;2213;49.720;7.296;2023-06-14T06:55:08;16.80;91.60
4399;DHT22;2213;49.720;7.296;2023-06-14T06:57:42;16.90;90.90
4399;DHT22;2213;49.720;7.296;2023-06-14T07:00:12;17.00;90.80
4399;DHT22;2213;49.720;7.296;2023-06-14T07:02:42;17.20;90.40
4399;DHT22;2213;49.720;7.296;2023-06-14T07:05:12;17.30;90.10
4399;DHT22;2213;49.720;7.296;2023-06-14T07:07:41;17.40;89.50
4399;DHT22;2213;49.720;7.296;2023-06-14T07:10:10;17.50;89.60
4399;DHT22;2213;49.720;7.296;2023-06-14T07:12:40;17.60;90.00
4399;DHT22;2213;49.720;7.296;2023-06-14T07:15:10;17.70;89.40
4399;DHT22;2213;49.720;7.296;2023-06-14T07:17:40;17.70;89.00
4399;DHT22;2213;49.720;7.296;2023-06-14T07:20:10;17.70;88.50
4399;DHT22;2213;49.720;7.296;2023-06-14T07:22:41;17.80;88.30
4399;DHT22;2213;49.720;7.296;2023-06-14T07:25:11;17.90;88.50
4399;DHT22;2213;49.720;7.296;2023-06-14T07:27:46;17.90;88.30
4399;DHT22;2213;49.720;7.296;2023-06-14T07:30:16;17.90;88.30
4399;DHT22;2213;49.720;7.296;2023-06-14T07:32:46;18.00;89.30
4399;DHT22;2213;49.720;7.296;2023-06-14T07:35:16;18.00;88.70
4399;DHT22;2213;49.720;7.296;2023-06-14T07:37:45;18.10;89.00
4399;DHT22;2213;49.720;7.296;2023-06-14T07:40:14;18.20;88.40
4399;DHT22;2213;49.720;7.296;2023-06-14T07:42:44;18.30;88.50
4399;DHT22;2213;49.720;7.296;2023-06-14T07:45:14;18.40;88.70
4399;DHT22;2213;49.720;7.296;2023-06-14T07:47:43;18.30;87.90
4399;DHT22;2213;49.720;7.296;2023-06-14T07:50:12;18.50;87.90
4399;DHT22;2213;49.720;7.296;2023-06-14T07:52:41;18.60;87.30
4399;DHT22;2213;49.720;7.296;2023-06-14T07:55:10;18.60;87.00
4399;DHT22;2213;49.720;7.296;2023-06-14T07:57:39;18.70;85.90
4399;DHT22;2213;49.720;7.296;2023-06-14T08:00:12;18.70;86.50
4399;DHT22;2213;49.720;7.296;2023-06-14T08:02:43;18.80;86.40
4399;DHT22;2213;49.720;7.296;2023-06-14T08:05:13;18.90;86.60
4399;DHT22;2213;49.720;7.296;2023-06-14T08:07:42;18.90;85.50
4399;DHT22;2213;49.720;7.296;2023-06-14T08:10:12;18.90;86.20
4399;DHT22;2213;49.720;7.296;2023-06-14T08:12:42;18.80;85.60
4399;DHT22;2213;49.720;7.296;2023-06-14T08:15:12;18.80;85.60
4399;DHT22;2213;49.720;7.296;2023-06-14T08:17:43;18.90;85.20
4399;DHT22;2213;49.720;7.296;2023-06-14T08:20:13;19.00;85.10
4399;DHT22;2213;49.720;7.296;2023-06-14T08:22:43;19.00;84.80
4399;DHT22;2213;49.720;7.296;2023-06-14T08:25:14;19.20;85.70
4399;DHT22;2213;49.720;7.296;2023-06-14T08:27:43;19.20;84.30
4399;DHT22;2213;49.720;7.296;2023-06-14T08:30:14;19.10;84.90
4399;DHT22;2213;49.720;7.296;2023-06-14T08:32:44;19.30;84.40
4399;DHT22;2213;49.720;7.296;2023-06-14T08:35:21;19.40;84.80
4399;DHT22;2213;49.720;7.296;2023-06-14T08:37:51;19.30;84.10
4399;DHT22;2213;49.720;7.296;2023-06-14T08:40:22;19.40;84.10
4399;DHT22;2213;49.720;7.296;2023-06-14T08:42:54;19.40;84.60
4399;DHT22;2213;49.720;7.296;2023-06-14T08:45:25;19.40;85.30
4399;DHT22;2213;49.720;7.296;2023-06-14T08:47:56;19.50;84.50
4399;DHT22;2213;49.720;7.296;2023-06-14T08:50:28;19.50;84.90
4399;DHT22;2213;49.720;7.296;2023-06-14T08:53:00;19.50;85.60
4399;DHT22;2213;49.720;7.296;2023-06-14T08:55:32;19.60;85.00
4399;DHT22;2213;49.720;7.296;2023-06-14T08:58:04;19.50;84.90
4399;DHT22;2213;49.720;7.296;2023-06-14T09:00:34;19.60;83.90
4399;DHT22;2213;49.720;7.296;2023-06-14T09:03:05;19.80;83.00
4399;DHT22;2213;49.720;7.296;2023-06-14T09:05:40;19.80;83.40
4399;DHT22;2213;49.720;7.296;2023-06-14T09:08:09;19.90;82.00
4399;DHT22;2213;49.720;7.296;2023-06-14T09:10:40;19.80;80.60
4399;DHT22;2213;49.720;7.296;2023-06-14T09:13:09;19.80;80.50
4399;DHT22;2213;49.720;7.296;2023-06-14T09:15:39;20.00;80.00
4399;DHT22;2213;49.720;7.296;2023-06-14T09:18:08;20.00;79.30
4399;DHT22;2213;49.720;7.296;2023-06-14T09:20:37;20.10;79.50
4399;DHT22;2213;49.720;7.296;2023-06-14T09:23:06;20.10;80.10
4399;DHT22;2213;49.720;7.296;2023-06-14T09:25:42;20.20;79.10
4399;DHT22;2213;49.720;7.296;2023-06-14T09:28:12;20.40;78.20
4399;DHT22;2213;49.720;7.296;2023-06-14T09:30:42;20.30;78.50
4399;DHT22;2213;49.720;7.296;2023-06-14T09:33:17;20.50;78.60
4399;DHT22;2213;49.720;7.296;2023-06-14T09:35:46;20.40;79.40
4399;DHT22;2213;49.720;7.296;2023-06-14T09:38:19;20.50;79.70
4399;DHT22;2213;49.720;7.296;2023-06-14T09:40:49;20.60;78.40
4399;DHT22;2213;49.720;7.296;2023-06-14T09:43:19;20.60;78.40
4399;DHT22;2213;49.720;7.296;2023-06-14T09:45:51;20.70;78.50
4399;DHT22;2213;49.720;7.296;2023-06-14T09:48:22;20.70;78.00
4399;DHT22;2213;49.720;7.296;2023-06-14T09:50:51;20.70;78.10
4399;DHT22;2213;49.720;7.296;2023-06-14T09:53:24;20.80;78.80
4399;DHT22;2213;49.720;7.296;2023-06-14T09:55:57;20.70;78.50
4399;DHT22;2213;49.720;7.296;2023-06-14T09:58:28;20.80;78.40
4399;DHT22;2213;49.720;7.296;2023-06-14T10:01:01;20.80;77.70
4399;DHT22;2213;49.720;7.296;2023-06-14T10:03:33;20.90;78.20
4399;DHT22;2213;49.720;7.296;2023-06-14T10:06:24;21.00;79.10
4399;DHT22;2213;49.720;7.296;2023-06-14T10:08:57;20.80;78.30
4399;DHT22;2213;49.720;7.296;2023-06-14T10:11:28;20.80;78.40
4399;DHT22;2213;49.720;7.296;2023-06-14T10:13:58;20.70;78.60
4399;DHT22;2213;49.720;7.296;2023-06-14T10:16:31;20.80;77.90
4399;DHT22;2213;49.720;7.296;2023-06-14T10:19:07;20.90;77.70
4399;DHT22;2213;49.720;7.296;2023-06-14T10:21:51;20.80;77.80
4399;DHT22;2213;49.720;7.296;2023-06-14T10:24:29;20.90;77.20
4399;DHT22;2213;49.720;7.296;2023-06-14T10:27:01;20.90;77.70
4399;DHT22;2213;49.720;7.296;2023-06-14T10:29:30;20.90;77.90
4399;DHT22;2213;49.720;7.296;2023-06-14T10:32:01;21.10;78.50
4399;DHT22;2213;49.720;7.296;2023-06-14T10:34:31;21.10;77.90
4399;DHT22;2213;49.720;7.296;2023-06-14T10:37:04;21.00;78.30
4399;DHT22;2213;49.720;7.296;2023-06-14T10:39:38;21.00;77.20
4399;DHT22;2213;49.720;7.296;2023-06-14T10:42:09;21.00;77.80
4399;DHT22;2213;49.720;7.296;2023-06-14T10:44:43;21.00;78.00
4399;DHT22;2213;49.720;7.296;2023-06-14T10:47:39;21.10;76.70
4399;DHT22;2213;49.720;7.296;2023-06-14T10:50:09;21.20;77.10
4399;DHT22;2213;49.720;7.296;2023-06-14T10:52:43;21.30;77.00
4399;DHT22;2213;49.720;7.296;2023-06-14T10:55:14;21.30;76.20
4399;DHT22;2213;49.720;7.296;2023-06-14T10:57:48;21.50;76.90
4399;DHT22;2213;49.720;7.296;2023-06-14T11:00:22;21.40;76.70
4399;DHT22;2213;49.720;7.296;2023-06-14T11:03:43;21.60;77.00
4399;DHT22;2213;49.720;7.296;2023-06-14T11:06:22;21.50;75.90
4399;DHT22;2213;49.720;7.296;2023-06-14T11:09:20;21.70;76.40
4399;DHT22;2213;49.720;7.296;2023-06-14T11:12:11;21.80;75.70
4399;DHT22;2213;49.720;7.296;2023-06-14T11:14:40;22.00;74.00
4399;DHT22;2213;49.720;7.296;2023-06-14T11:17:09;22.00;73.70
4399;DHT22;2213;49.720;7.296;2023-06-14T11:19:42;22.10;75.90
4399;DHT22;2213;49.720;7.296;2023-06-14T11:22:12;22.00;75.40
4399;DHT22;2213;49.720;7.296;2023-06-14T11:24:43;21.90;75.10
4399;DHT22;2213;49.720;7.296;2023-06-14T11:27:12;22.00;75.00
4399;DHT22;2213;49.720;7.296;2023-06-14T11:29:48;22.10;74.90
4399;DHT22;2213;49.720;7.296;2023-06-14T11:32:17;22.10;76.40
4399;DHT22;2213;49.720;7.296;2023-06-14T11:34:47;22.10;75.80
4399;DHT22;2213;49.720;7.296;2023-06-14T11:37:18;22.10;75.20
4399;DHT22;2213;49.720;7.296;2023-06-14T11:39:48;22.10;76.00
4399;DHT22;2213;49.720;7.296;2023-06-14T11:42:17;22.20;74.00
4399;DHT22;2213;49.720;7.296;2023-06-14T11:44:46;22.10;74.80
4399;DHT22;2213;49.720;7.296;2023-06-14T11:47:15;22.10;76.50
4399;DHT22;2213;49.720;7.296;2023-06-14T11:49:44;22.10;76.00
4399;DHT22;2213;49.720;7.296;2023-06-14T11:52:14;22.00;74.50
4399;DHT22;2213;49.720;7.296;2023-06-14T11:54:43;22.00;75.90
4399;DHT22;2213;49.720;7.296;2023-06-14T11:57:13;22.10;75.00
4399;DHT22;2213;49.720;7.296;2023-06-14T11:59:42;22.30;76.10
4399;DHT22;2213;49.720;7.296;2023-06-14T12:02:14;22.40;74.90
4399;DHT22;2213;49.720;7.296;2023-06-14T12:04:44;22.30;75.80
4399;DHT22;2213;49.720;7.296;2023-06-14T12:07:18;22.30;75.90
4399;DHT22;2213;49.720;7.296;2023-06-14T12:10:05;22.50;75.70
4399;DHT22;2213;49.720;7.296;2023-06-14T12:12:38;22.70;75.40
4399;DHT22;2213;49.720;7.296;2023-06-14T12:15:09;22.90;75.20
4399;DHT22;2213;49.720;7.296;2023-06-14T12:17:42;23.00;74.90
4399;DHT22;2213;49.720;7.296;2023-06-14T12:20:13;23.00;74.90
4399;DHT22;2213;49.720;7.296;2023-06-14T12:22:55;23.00;74.50
4399;DHT22;2213;49.720;7.296;2023-06-14T12:25:27;22.90;72.20
4399;DHT22;2213;49.720;7.296;2023-06-14T12:27:59;22.90;72.00
4399;DHT22;2213;49.720;7.296;2023-06-14T12:30:33;22.70;71.90
4399;DHT22;2213;49.720;7.296;2023-06-14T12:33:03;22.60;72.00
4399;DHT22;2213;49.720;7.296;2023-06-14T12:35:33;22.80;72.60
4399;DHT22;2213;49.720;7.296;2023-06-14T12:38:04;22.60;71.90
4399;DHT22;2213;49.720;7.296;2023-06-14T12:40:33;22.60;72.90
4399;DHT22;2213;49.720;7.296;2023-06-14T12:43:04;22.60;72.60
4399;DHT22;2213;49.720;7.296;2023-06-14T12:45:34;22.70;73.60
4399;DHT22;2213;49.720;7.296;2023-06-14T12:48:03;22.70;73.90
4399;DHT22;2213;49.720;7.296;2023-06-14T12:50:32;22.70;75.00
4399;DHT22;2213;49.720;7.296;2023-06-14T12:53:00;22.80;72.60
4399;DHT22;2213;49.720;7.296;2023-06-14T12:55:31;22.80;71.70
4399;DHT22;2213;49.720;7.296;2023-06-14T12:58:00;23.00;72.00
4399;DHT22;2213;49.720;7.296;2023-06-14T13:00:30;22.80;71.90
4399;DHT22;2213;49.720;7.296;2023-06-14T13:02:59;22.80;73.10
4399;DHT22;2213;49.720;7.296;2023-06-14T13:05:28;22.90;71.40
4399;DHT22;2213;49.720;7.296;2023-06-14T13:07:58;22.80;70.80
4399;DHT22;2213;49.720;7.296;2023-06-14T13:10:27;23.00;71.40
4399;DHT22;2213;49.720;7.296;2023-06-14T13:12:58;23.00;72.00
4399;DHT22;2213;49.720;7.296;2023-06-14T13:15:27;23.00;71.70
4399;DHT22;2213;49.720;7.296;2023-06-14T13:17:55;23.30;72.60
4399;DHT22;2213;49.720;7.296;2023-06-14T13:20:24;23.40;72.10
4399;DHT22;2213;49.720;7.296;2023-06-14T13:22:53;23.60;71.10
4399;DHT22;2213;49.720;7.296;2023-06-14T13:25:22;23.60;71.30
4399;DHT22;2213;49.720;7.296;2023-06-14T13:27:50;23.50;72.30
4399;DHT22;2213;49.720;7.296;2023-06-14T13:30:20;23.50;71.90
4399;DHT22;2213;49.720;7.296;2023-06-14T13:32:49;23.40;71.90
4399;DHT22;2213;49.720;7.296;2023-06-14T13:35:19;23.40;72.20
4399;DHT22;2213;49.720;7.296;2023-06-14T13:37:47;23.60;71.10
4399;DHT22;2213;49.720;7.296;2023-06-14T13:40:17;23.60;71.50
4399;DHT22;2213;49.720;7.296;2023-06-14T13:42:46;23.70;72.80
4399;DHT22;2213;49.720;7.296;2023-06-14T13:45:16;23.60;72.20
4399;DHT22;2213;49.720;7.296;2023-06-14T13:47:46;23.70;73.50
4399;DHT22;2213;49.720;7.296;2023-06-14T13:50:16;23.60;70.90
4399;DHT22;2213;49.720;7.296;2023-06-14T13:52:45;23.80;73.00
4399;DHT22;2213;49.720;7.296;2023-06-14T13:55:14;23.90;71.80
4399;DHT22;2213;49.720;7.296;2023-06-14T13:57:43;24.00;71.90
4399;DHT22;2213;49.720;7.296;2023-06-14T14:00:14;23.80;73.30
4399;DHT22;2213;49.720;7.296;2023-06-14T14:02:47;23.80;71.90
4399;DHT22;2213;49.720;7.296;2023-06-14T14:05:18;23.90;73.30
4399;DHT22;2213;49.720;7.296;2023-06-14T14:07:47;24.00;71.90
4399;DHT22;2213;49.720;7.296;2023-06-14T14:10:16;24.10;71.50
4399;DHT22;2213;49.720;7.296;2023-06-14T14:12:47;24.20;72.40
4399;DHT22;2213;49.720;7.296;2023-06-14T14:15:16;24.20;71.20
4399;DHT22;2213;49.720;7.296;2023-06-14T14:17:44;24.40;70.20
4399;DHT22;2213;49.720;7.296;2023-06-14T14:20:15;24.40;69.30
4399;DHT22;2213;49.720;7.296;2023-06-14T14:22:45;24.40;67.70
4399;DHT22;2213;49.720;7.296;2023-06-14T14:25:13;24.50;69.00
4399;DHT22;2213;49.720;7.296;2023-06-14T14:27:43;24.60;71.10
4399;DHT22;2213;49.720;7.296;2023-06-14T14:30:13;24.70;69.90
4399;DHT22;2213;49.720;7.296;2023-06-14T14:32:45;24.70;70.70
4399;DHT22;2213;49.720;7.296;2023-06-14T14:35:18;24.60;70.40
4399;DHT22;2213;49.720;7.296;2023-06-14T14:37:48;24.70;69.90
4399;DHT22;2213;49.720;7.296;2023-06-14T14:40:17;24.80;69.50
4399;DHT22;2213;49.720;7.296;2023-06-14T14:42:46;24.90;69.80
4399;DHT22;2213;49.720;7.296;2023-06-14T14:45:15;25.10;69.50
4399;DHT22;2213;49.720;7.296;2023-06-14T14:47:44;25.20;68.50
4399;DHT22;2213;49.720;7.296;2023-06-14T14:50:12;25.30;69.70
4399;DHT22;2213;49.720;7.296;2023-06-14T14:52:43;25.20;69.10
4399;DHT22;2213;49.720;7.296;2023-06-14T14:55:12;25.20;69.60
4399;DHT22;2213;49.720;7.296;2023-06-14T14:57:41;25.20;69.70
4399;DHT22;2213;49.720;7.296;2023-06-14T15:00:11;25.30;69.90
4399;DHT22;2213;49.720;7.296;2023-06-14T15:02:41;25.50;68.10
4399;DHT22;2213;49.720;7.296;2023-06-14T15:05:10;25.70;68.20
4399;DHT22;2213;49.720;7.296;2023-06-14T15:07:38;25.80;67.50
4399;DHT22;2213;49.720;7.296;2023-06-14T15:10:09;25.80;67.10
4399;DHT22;2213;49.720;7.296;2023-06-14T15:12:37;26.00;67.60
4399;DHT22;2213;49.720;7.296;2023-06-14T15:15:07;26.20;67.50
4399;DHT22;2213;49.720;7.296;2023-06-14T15:17:37;26.30;67.00
4399;DHT22;2213;49.720;7.296;2023-06-14T15:20:07;26.30;67.30
4399;DHT22;2213;49.720;7.296;2023-06-14T15:22:36;26.50;67.00
4399;DHT22;2213;49.720;7.296;2023-06-14T15:25:06;26.50;66.80
4399;DHT22;2213;49.720;7.296;2023-06-14T15:27:36;26.50;67.40
4399;DHT22;2213;49.720;7.296;2023-06-14T15:30:06;26.60;66.50
4399;DHT22;2213;49.720;7.296;2023-06-14T15:32:36;26.60;66.50
4399;DHT22;2213;49.720;7.296;2023-06-14T15:35:05;26.50;66.90
4399;DHT22;2213;49.720;7.296;2023-06-14T15:37:35;26.50;67.10
4399;DHT22;2213;49.720;7.296;2023-06-14T15:40:06;26.60;66.40
4399;DHT22;2213;49.720;7.296;2023-06-14T15:42:40;26.70;66.80
4399;DHT22;2213;49.720;7.296;2023-06-14T15:45:09;26.70;66.20
4399;DHT22;2213;49.720;7.296;2023-06-14T15:47:39;26.80;66.70
4399;DHT22;2213;49.720;7.296;2023-06-14T15:50:09;26.90;66.60
4399;DHT22;2213;49.720;7.296;2023-06-14T15:52:38;27.00;65.40
4399;DHT22;2213;49.720;7.296;2023-06-14T15:55:07;27.00;65.30
4399;DHT22;2213;49.720;7.296;2023-06-14T15:57:37;26.90;64.80
4399;DHT22;2213;49.720;7.296;2023-06-14T16:00:08;26.80;64.90
4399;DHT22;2213;49.720;7.296;2023-06-14T16:02:37;26.70;65.40
4399;DHT22;2213;49.720;7.296;2023-06-14T16:05:06;26.60;65.50
4399;DHT22;2213;49.720;7.296;2023-06-14T16:07:35;26.50;64.30
4399;DHT22;2213;49.720;7.296;2023-06-14T16:10:05;26.40;65.10
4399;DHT22;2213;49.720;7.296;2023-06-14T16:12:35;26.20;65.10
4399;DHT22;2213;49.720;7.296;2023-06-14T16:15:04;26.10;66.40
4399;DHT22;2213;49.720;7.296;2023-06-14T16:17:36;26.10;65.40
4399;DHT22;2213;49.720;7.296;2023-06-14T16:20:06;26.10;65.20
4399;DHT22;2213;49.720;7.296;2023-06-14T16:22:36;26.10;65.40
4399;DHT22;2213;49.720;7.296;2023-06-14T16:25:05;26.20;66.00